AirNav   Pilot Hours Calculator
 
 1492 users online  

MN43 First Light Health System Heliport
Mora, Minnesota, USA

GOING TO MORA?


FAA INFORMATION EFFECTIVE 08 OCTOBER 2020

Location

FAA Identifier: MN43
Lat/Long: 45-52-27.8510N 093-17-23.8050W
45-52.464183N 093-17.396750W
45.8744031,-93.2899458
(estimated)
Elevation: 1005 ft. / 306 m (estimated)
Variation: 02E (1985)
Time zone: UTC -5 (UTC -6 during Standard Time)
Zip code: 55051

Heliport Operations

Heliport use: Private use, MEDICAL USE.
Activation date: 11/1991
Control tower: no
ARTCC: MINNEAPOLIS CENTER
FSS: PRINCETON FLIGHT SERVICE STATION
Attendance: CONTINUOUS
Wind indicator: no
Segmented circle: no
Lights: FOR PERIMETER AND OBSTN LGTS CALL 320-679-1212.

Heliport Communications

WX AWOS-3 at JMR (1.3 nm NE): 123.925 (320-679-1629)
WX AWOS-3 at ROS (18 nm SE): 118.8 (320-358-3339)
WX AWOS-3 at 04W (19 nm NE): 118.225 (320-384-6169)
WX AWOS-3 at CBG (19 nm S): 121.125 (763-689-9562)

Nearby radio navigation aids

VOR radial/distance  VOR name  Freq  Var
STCr056/37.7ST CLOUD VOR/DME112.1003E

 
NDB name  Hdg/Dist  Freq  Var  ID
MORA222/1.332700WJMR .--- -- .-.
RUSH CITY305/17.728202EROS .-. --- ...
CAMBRIDGE355/19.035001ECBG -.-. -... --.
PRINCETON033/22.936803EPNM .--. -. --
MOOSE LAKE210/38.336202EMZH -- --.. ....
BIG DOCTOR276/38.720301WBXR -... -..- .-.

Heliport Services

Runway Information

Helipad H1

Dimensions: 50 x 50 ft. / 15 x 15 m
Surface: concrete
Runway edge lights: PERI
Latitude: 45-52.464183N
Longitude: 093-17.396750W
Elevation: 1005.0 ft.
Traffic pattern: leftleft

Heliport Ownership and Management from official FAA records

Ownership: Privately-owned
Owner: FIRST LIGHT HEALTH SYSTEM
301 S. HWY 65
MORA, MN 55051
Phone 320-679-1212
Manager: FACILITY OPERATIONS MANAGER
301 S. HWY 65, ATTN: MARK VIZENOR
MORA, MN 55051
Phone 320-225-3475

Additional Remarks

E111-1 ALL APCH/DEP OPNS CONDUCTED 025 DEG TO 045 DEG AND/TO FM 165 DEG FM CNTR OF PAD; TKOF/LNDG AREA MKD; NON-OBSTRUCTION WIND INDICATOR MAINTAINED NEXT TO TKOF/LNDG AREA.
A52-H1 25 FT BLDG 275 FT WEST.
FOR CD CTC MINNEAPOLIS ARTCC AT 651-463-5588.

Instrument Procedures

There are no published instrument procedures at MN43.

Some nearby airports with instrument procedures:

KJMR - Mora Municipal Airport (1 nm NE)
KROS - Rush City Regional Airport (18 nm SE)
04W - Field of Dreams Airport (19 nm NE)
KCBG - Cambridge Municipal Airport (19 nm S)
KPNM - Princeton Municipal Airport (23 nm SW)
 
Loc | Ops | Rwys | IFR | FBO | Links
Com | Nav | Svcs | Stats | Notes
Area around MN43 (First Light Health System Heliport)
 
Road maps at: MapQuest Bing Google
 
Aerial photo
No photo
 
Sectional chart

 
Airport distance calculator
Flying to First Light Health System Heliport? Find the distance to fly.

From to MN43

Sunrise and sunset
Times for 21-Oct-2020
 Local
(UTC-5)
 Zulu
(UTC)
Morning civil twilight07:1012:10
Sunrise07:4012:40
Sunset18:1523:15
Evening civil twilight18:4523:45

Current date and time
Zulu (UTC)  21-Oct-2020 21:04:32
Local (UTC-5)  21-Oct-2020 16:04:32
 
METAR
KJMR 212055Z AUTO 24006KT 10SM CLR 01/M03 A3017 RMK AO2
KROS 
18nm SE 
212045Z AUTO 25006KT 10SM CLR 01/M03 A3018 RMK AO2
KCBG 
18nm S 
212055Z AUTO 24005KT 10SM SCT080 02/M04 A3018 RMK AO2 P0001
K04W 
19nm NE 
212055Z AUTO 23007KT 10SM BKN026 02/M01 A3015 RMK AO2
TAF
KSTC 
37nm SW 
211731Z 2118/2218 27009KT P6SM OVC100 FM220000 VRB06KT P6SM OVC040 FM221100 07009KT 4SM -SN BR OVC015 FM221400 07012G20KT 1/2SM SNPL OVC010
NOTAMs
Click for the latest NOTAMs
NOTAMs are issued by the DoD/FAA and will open in a separate window not controlled by AirNav.

 

 
 

Would you like to see your business listed on this page?

 If your business provides an interesting product or service to pilots, flight crews, aircraft, or users of the First Light Health System Heliport, you should consider listing it here.  To start the listing process, click on the button below
 
Add a business
 

Other Pages about First Light Health System Heliport

Update a link
 
Copyright © AirNav, LLC. All rights reserved. Privacy Policy  Contact